Broadlands, Illinois
Current Conditions -  °F | °C
As of 6:05 PM on Monday 22 Dec 2014 (Local Time) from KCMI Reporting Station
Light Rain Light Rain  
Wind Chill: 38°   Ceiling: 500
Heat Index: 45°   Visibility: 5mi
Dew Point: 43°   Wind: 17mph
Humidity: 93%   Direction: 130°SE
Pressure: 29.62"   Gusts: NA
Location:  39.91°N, 87.99°W
Report Text: KCMI 230005Z 13015KT 5SM -RA BR OVC005 07/06 A2962 RMK AO2 P0000 T00720061
Loading
Personal Weather Stations






























Interactive Weather Map New forecast layout! Learn more

10-Day Weather Forecast

Advertisements
Track Severe Weather on mobile